Time;durP1;ratioP1;P1;durP2;ratioP2;P2;SDS_P1;SDS_P2;PMS_P1;PMS_P2;Temp;Humidity;BMP_temperature;BMP_pressure;BME280_temperature;BME280_humidity;BME280_pressure;Samples;Min_cycle;Max_cycle;Signal;HPM_P1;HPM_P2
2022/02/02 00:02:36;;;;;;;9.30;6.20;;;;;;;2.12;80.90;97827.70;130184;1269;107762;-77
2022/02/02 00:05:52;;;;;;;7.90;5.00;;;;;;;2.15;81.05;97823.02;130152;1269;108967;-76
2022/02/02 00:09:01;;;;;;;7.40;4.60;;;;;;;2.21;80.93;97826.50;130056;1269;107208;-77
2022/02/02 00:12:19;;;;;;;7.30;4.70;;;;;;;2.26;80.86;97819.40;130135;1271;108745;-76
2022/02/02 00:15:40;;;;;;;12.20;7.10;;;;;;;2.29;80.96;97820.71;130296;1269;106294;-76
2022/02/02 00:18:54;;;;;;;8.00;5.50;;;;;;;2.32;80.88;97823.71;130038;1269;108593;-76
2022/02/02 00:22:04;;;;;;;7.60;4.40;;;;;;;2.31;80.95;97825.16;130072;1269;108530;-76
2022/02/02 00:25:16;;;;;;;5.70;3.80;;;;;;;2.30;80.90;97826.94;130245;1269;108705;-74
2022/02/02 00:28:26;;;;;;;6.20;3.90;;;;;;;2.28;80.95;97818.73;130029;1269;108758;-76
2022/02/02 00:31:37;;;;;;;4.80;3.20;;;;;;;2.29;81.02;97817.20;130043;1269;108755;-77
2022/02/02 00:34:42;;;;;;;6.30;4.10;;;;;;;2.33;80.94;97812.95;130012;1269;108589;-77
2022/02/02 00:37:48;;;;;;;4.40;3.10;;;;;;;2.36;80.91;97810.01;130024;1269;108987;-75
2022/02/02 00:40:53;;;;;;;5.00;3.50;;;;;;;2.39;80.93;97817.41;130130;1269;108903;-74
2022/02/02 00:44:04;;;;;;;5.10;3.80;;;;;;;2.41;80.95;97814.10;130162;1269;107810;-75
2022/02/02 00:47:21;;;;;;;5.40;3.50;;;;;;;2.37;80.88;97817.96;130144;1269;108701;-76
2022/02/02 00:50:31;;;;;;;10.70;5.50;;;;;;;2.33;81.02;97815.66;130390;1268;108846;-78
2022/02/02 00:53:36;;;;;;;8.80;4.80;;;;;;;2.31;81.10;97815.72;130199;1268;108788;-77
2022/02/02 00:56:42;;;;;;;4.60;3.10;;;;;;;2.34;81.03;97811.05;130251;1268;108877;-73
2022/02/02 00:59:47;;;;;;;8.60;5.10;;;;;;;2.39;81.09;97811.98;130257;1268;108939;-76
2022/02/02 01:02:52;;;;;;;87.60;46.90;;;;;;;2.42;81.22;97821.07;130262;1268;108848;-73
2022/02/02 01:06:00;;;;;;;44.30;24.20;;;;;;;2.45;81.23;97812.23;130245;1268;108888;-76
2022/02/02 01:12:43;;;;;;;71.60;35.50;;;;;;;2.45;81.54;97806.44;130386;1268;108635;-82
2022/02/02 01:16:41;;;;;;;51.80;25.40;;;;;;;2.40;81.65;97801.47;130301;1268;108783;-82
2022/02/02 01:19:34;;;;;;;66.60;32.30;;;;;;;2.40;81.74;97804.29;130319;1268;108943;-81
2022/02/02 01:29:26;;;;;;;186.90;74.20;;;;;;;2.61;82.20;97802.08;130193;1268;108821;-80
2022/02/02 01:32:32;;;;;;;222.40;83.40;;;;;;;2.64;82.32;97797.20;130164;1269;108708;-80
2022/02/02 01:35:37;;;;;;;267.90;106.60;;;;;;;2.65;82.34;97798.18;130179;1268;108733;-78
2022/02/02 01:38:44;;;;;;;417.50;172.50;;;;;;;2.65;82.46;97796.60;130333;1268;108860;-79
2022/02/02 01:41:50;;;;;;;327.00;123.90;;;;;;;2.62;82.27;97807.55;130190;1267;109566;-81
2022/02/02 01:45:02;;;;;;;336.20;125.20;;;;;;;2.63;82.40;97803.66;130177;1268;106648;-80
2022/02/02 01:48:18;;;;;;;220.90;81.10;;;;;;;2.65;82.67;97801.00;130185;1268;109035;-81
2022/02/02 01:51:45;;;;;;;403.10;160.30;;;;;;;2.71;82.73;97808.27;130212;1268;108569;-80
2022/02/02 01:54:57;;;;;;;242.60;93.70;;;;;;;2.74;82.90;97814.73;130244;1268;106801;-80
2022/02/02 01:58:12;;;;;;;57.80;27.20;;;;;;;2.76;83.09;97812.23;130346;1268;109011;-80
2022/02/02 02:01:19;;;;;;;15.50;9.70;;;;;;;2.75;83.07;97813.05;130242;1268;107285;-83
2022/02/02 02:04:24;;;;;;;10.70;5.90;;;;;;;2.76;83.17;97815.77;130394;1268;108709;-82
2022/02/02 02:07:30;;;;;;;9.80;6.60;;;;;;;2.80;83.07;97814.52;130402;1268;108804;-79
2022/02/02 02:10:35;;;;;;;9.30;6.00;;;;;;;2.85;83.49;97817.57;130213;1268;108874;-81
2022/02/02 02:14:05;;;;;;;8.50;4.80;;;;;;;2.90;83.60;97815.90;130203;1268;108556;-78
2022/02/02 02:17:11;;;;;;;8.30;4.90;;;;;;;2.92;83.46;97817.25;130175;1268;108754;-79
2022/02/02 02:20:16;;;;;;;10.40;4.60;;;;;;;2.92;83.37;97813.13;130188;1268;108824;-80
2022/02/02 02:23:21;;;;;;;8.50;4.90;;;;;;;2.94;83.70;97814.58;130249;1268;107798;-79
2022/02/02 02:26:29;;;;;;;9.70;4.20;;;;;;;2.95;83.58;97808.09;130250;1268;108965;-80
2022/02/02 02:29:50;;;;;;;6.20;3.80;;;;;;;3.01;83.93;97811.89;130265;1268;108660;-80
2022/02/02 02:36:51;;;;;;;6.40;4.00;;;;;;;3.05;84.24;97810.52;130193;1269;108726;-78
2022/02/02 02:40:13;;;;;;;9.10;5.10;;;;;;;3.03;84.02;97810.66;130188;1268;108716;-78
2022/02/02 02:56:52;;;;;;;7.70;3.40;;;;;;;3.13;84.42;97817.08;130246;1268;108993;-80
2022/02/02 03:00:22;;;;;;;7.40;3.80;;;;;;;3.12;84.39;97819.21;130306;1268;107188;-80
2022/02/02 03:30:48;;;;;;;19.80;12.00;;;;;;;3.20;84.99;97836.67;130222;1268;108802;-81
2022/02/02 03:51:11;;;;;;;90.50;41.30;;;;;;;3.33;84.92;97843.88;130356;1268;108805;-79
2022/02/02 03:54:40;;;;;;;63.20;30.20;;;;;;;3.36;85.08;97839.59;130199;1268;108737;-79
2022/02/02 03:57:55;;;;;;;22.20;12.40;;;;;;;3.34;85.01;97844.15;130182;1268;106958;-80
2022/02/02 04:01:19;;;;;;;42.10;22.10;;;;;;;3.31;84.79;97839.00;130258;1268;108696;-81
2022/02/02 04:04:38;;;;;;;36.50;19.90;;;;;;;3.33;85.14;97845.98;130181;1268;108488;-78
2022/02/02 04:07:48;;;;;;;44.50;23.70;;;;;;;3.36;84.98;97851.00;130185;1268;106761;-78
2022/02/02 04:10:55;;;;;;;50.10;30.30;;;;;;;3.40;84.95;97848.10;130159;1268;109186;-76
2022/02/02 04:52:14;;;;;;;22.70;10.00;;;;;;;3.42;85.37;97863.02;129947;1274;108777;-78
2022/02/02 04:55:30;;;;;;;42.20;23.80;;;;;;;3.42;85.38;97862.82;129894;1274;108910;-78
2022/02/02 04:58:45;;;;;;;14.20;6.50;;;;;;;3.43;85.45;97865.15;129853;1274;108721;-79
2022/02/02 05:08:51;;;;;;;20.30;13.10;;;;;;;3.37;85.84;97883.02;129974;1273;108841;-77
2022/02/02 05:19:11;;;;;;;76.90;36.60;;;;;;;3.44;85.65;97883.86;129837;1274;108890;-77
2022/02/02 05:43:14;;;;;;;9.60;4.40;;;;;;;3.43;85.75;97882.88;129826;1273;108855;-79
2022/02/02 05:49:43;;;;;;;12.30;4.60;;;;;;;3.45;85.71;97878.07;130226;1270;108793;-80
2022/02/02 05:52:51;;;;;;;11.10;5.50;;;;;;;3.51;85.88;97874.27;130204;1270;108764;-82
2022/02/02 05:55:57;;;;;;;11.30;6.30;;;;;;;3.51;85.78;97875.01;130241;1271;108905;-83
2022/02/02 05:59:02;;;;;;;11.00;5.60;;;;;;;3.50;85.86;97878.59;130285;1270;108951;-79
2022/02/02 06:02:11;;;;;;;14.30;4.50;;;;;;;3.46;85.69;97883.44;130116;1270;108750;-77
2022/02/02 06:05:17;;;;;;;10.20;5.00;;;;;;;3.41;85.75;97878.86;129985;1270;107401;-75
2022/02/02 06:08:23;;;;;;;8.40;3.40;;;;;;;3.43;85.91;97886.44;130008;1270;108751;-81
2022/02/02 06:11:28;;;;;;;19.50;6.60;;;;;;;3.43;85.99;97893.29;130071;1270;108830;-76
2022/02/02 06:14:33;;;;;;;10.70;4.70;;;;;;;3.42;85.81;97898.18;130005;1270;108862;-77
2022/02/02 06:17:45;;;;;;;8.10;3.70;;;;;;;3.44;85.95;97903.18;129994;1270;108812;-75
2022/02/02 06:20:58;;;;;;;27.40;13.70;;;;;;;3.40;85.92;97913.06;130018;1270;108749;-75
2022/02/02 06:24:10;;;;;;;16.10;6.70;;;;;;;3.39;85.86;97917.41;129925;1271;109210;-76
2022/02/02 06:27:23;;;;;;;24.70;13.20;;;;;;;3.40;85.84;97918.95;129994;1270;107696;-76
2022/02/02 06:30:30;;;;;;;12.90;6.10;;;;;;;3.44;85.89;97927.27;130188;1270;108915;-76
2022/02/02 06:33:38;;;;;;;23.00;13.20;;;;;;;3.50;85.82;97927.61;130010;1270;108757;-77
2022/02/02 06:36:46;;;;;;;35.90;18.30;;;;;;;3.53;85.82;97931.41;130190;1270;109738;-75
2022/02/02 06:39:53;;;;;;;13.30;4.50;;;;;;;3.50;85.72;97934.20;130087;1270;108832;-78
2022/02/02 06:42:59;;;;;;;20.50;10.60;;;;;;;3.47;85.88;97938.73;130085;1270;108681;-78
2022/02/02 06:46:05;;;;;;;9.70;3.80;;;;;;;3.48;86.18;97940.48;130114;1270;108632;-78
2022/02/02 06:49:11;;;;;;;18.50;9.70;;;;;;;3.49;86.07;97950.80;130431;1270;107802;-78
2022/02/02 06:52:24;;;;;;;13.70;5.70;;;;;;;3.51;85.97;97954.80;130201;1270;108681;-76
2022/02/02 06:55:39;;;;;;;15.40;5.40;;;;;;;3.44;86.08;97957.95;130255;1270;107753;-74
2022/02/02 06:59:08;;;;;;;14.80;7.70;;;;;;;3.40;86.28;97963.02;130202;1270;108698;-75
2022/02/02 07:02:34;;;;;;;15.40;7.70;;;;;;;3.42;86.27;97962.51;130219;1270;107417;-74
2022/02/02 07:05:49;;;;;;;12.00;5.20;;;;;;;3.43;86.41;97959.50;130194;1270;110154;-78
2022/02/02 07:09:14;;;;;;;8.50;4.30;;;;;;;3.51;86.44;97960.39;130219;1270;108744;-77
2022/02/02 07:12:35;;;;;;;16.30;6.70;;;;;;;3.53;86.07;97961.97;130566;1265;106847;-76
2022/02/02 07:15:55;;;;;;;9.30;4.10;;;;;;;3.55;85.97;97971.43;130561;1265;108698;-76
2022/02/02 07:19:13;;;;;;;78.70;38.70;;;;;;;3.55;85.97;97969.00;130580;1265;107624;-81
2022/02/02 07:22:37;;;;;;;9.40;5.00;;;;;;;3.61;86.01;97971.70;130454;1265;109804;-80
2022/02/02 07:29:08;;;;;;;13.70;5.30;;;;;;;3.70;85.71;97977.17;130463;1265;109030;-76
2022/02/02 07:32:18;;;;;;;22.90;12.40;;;;;;;3.68;85.72;97980.05;130458;1267;108894;-75
2022/02/02 07:35:45;;;;;;;16.20;8.30;;;;;;;3.67;85.68;97979.84;130422;1265;108729;-76
2022/02/02 07:38:56;;;;;;;54.00;22.10;;;;;;;3.63;85.65;97984.79;130572;1265;108663;-76
2022/02/02 07:42:05;;;;;;;21.20;8.30;;;;;;;3.63;85.88;97983.08;130504;1265;109143;-76
2022/02/02 07:45:12;;;;;;;35.00;15.80;;;;;;;3.66;85.95;97987.88;130539;1265;108887;-74
2022/02/02 07:48:18;;;;;;;142.50;63.60;;;;;;;3.66;85.83;97990.82;130512;1265;107338;-73
2022/02/02 07:51:26;;;;;;;50.00;23.80;;;;;;;3.70;85.75;97989.01;130589;1265;108848;-72
2022/02/02 07:54:36;;;;;;;35.90;16.80;;;;;;;3.76;85.86;97998.23;130532;1265;107692;-76
2022/02/02 07:57:44;;;;;;;73.60;34.90;;;;;;;3.79;85.56;98004.04;130490;1265;106987;-74
2022/02/02 08:00:50;;;;;;;96.30;43.70;;;;;;;3.78;85.35;98000.45;130553;1265;108465;-75
2022/02/02 08:03:57;;;;;;;21.80;12.00;;;;;;;3.78;85.62;97998.73;130479;1264;108910;-76
2022/02/02 08:07:04;;;;;;;29.90;14.90;;;;;;;3.83;85.50;97998.48;130467;1265;108635;-75
2022/02/02 08:10:15;;;;;;;7.90;3.90;;;;;;;3.78;85.63;98007.50;130369;1265;108710;-75
2022/02/02 08:13:23;;;;;;;6.80;2.80;;;;;;;3.73;85.85;98006.27;130393;1265;107291;-77
2022/02/02 08:16:31;;;;;;;6.60;2.90;;;;;;;3.68;85.97;98013.95;130438;1265;108828;-75
2022/02/02 08:19:38;;;;;;;8.10;3.00;;;;;;;3.68;86.05;98023.31;130361;1267;108744;-75
2022/02/02 08:22:44;;;;;;;11.40;4.40;;;;;;;3.66;86.23;98016.52;130510;1265;108885;-75
2022/02/02 08:25:49;;;;;;;9.20;4.70;;;;;;;3.64;86.14;98018.27;130589;1265;108626;-76
2022/02/02 08:28:58;;;;;;;8.20;2.80;;;;;;;3.68;86.13;98022.80;130486;1265;108758;-75
2022/02/02 08:32:05;;;;;;;9.10;3.20;;;;;;;3.70;85.98;98030.70;130647;1264;107722;-74
2022/02/02 08:35:12;;;;;;;9.20;3.60;;;;;;;3.70;85.95;98038.95;130588;1264;109146;-75
2022/02/02 08:38:31;;;;;;;8.70;4.30;;;;;;;3.71;85.79;98040.55;130580;1265;106919;-77
2022/02/02 08:41:40;;;;;;;40.40;18.60;;;;;;;3.77;85.94;98047.52;130781;1267;108648;-75
2022/02/02 08:44:51;;;;;;;7.20;3.10;;;;;;;3.80;85.72;98053.87;130528;1266;108936;-75
2022/02/02 08:48:00;;;;;;;73.20;29.80;;;;;;;3.75;85.55;98064.04;130553;1267;108852;-76
2022/02/02 08:51:09;;;;;;;24.10;11.50;;;;;;;3.80;85.78;98078.36;130376;1267;107671;-72
2022/02/02 08:54:24;;;;;;;20.00;9.30;;;;;;;3.81;85.02;98086.34;130470;1267;108763;-75
2022/02/02 08:57:43;;;;;;;8.40;4.30;;;;;;;3.75;84.72;98092.34;130541;1267;108688;-72
2022/02/02 09:00:51;;;;;;;13.20;6.60;;;;;;;3.76;84.96;98094.19;130578;1267;107536;-73
2022/02/02 09:07:19;;;;;;;8.90;4.60;;;;;;;3.66;84.08;98101.59;130531;1267;108719;-74
2022/02/02 09:20:00;;;;;;;7.40;4.20;;;;;;;3.69;84.71;98106.49;130656;1267;108839;-72
2022/02/02 09:21:20;;;;;;;6.00;3.20;;;;;;;3.70;83.60;98127.48;130535;1267;110146;-73
2022/02/02 09:24:22;;;;;;;7.90;4.10;;;;;;;3.57;83.34;98131.85;131443;1265;107730;-77
2022/02/02 09:34:16;;;;;;;4.70;2.60;;;;;;;3.36;83.55;98156.20;130434;1265;108932;-75
2022/02/02 09:37:23;;;;;;;13.30;7.10;;;;;;;3.26;83.27;98161.96;130450;1265;109595;-73
2022/02/02 09:41:09;;;;;;;6.70;3.50;;;;;;;3.22;83.51;98162.04;130610;1267;108489;-75
2022/02/02 09:44:03;;;;;;;5.60;3.60;;;;;;;3.22;83.57;98174.52;130408;1267;108504;-75
2022/02/02 09:47:18;;;;;;;7.00;4.20;;;;;;;3.15;83.41;98182.73;130451;1267;108854;-72
2022/02/02 09:50:30;;;;;;;8.40;4.90;;;;;;;3.11;83.72;98186.86;130481;1267;108768;-75
2022/02/02 09:53:40;;;;;;;6.40;3.60;;;;;;;3.10;83.39;98195.13;130515;1267;108721;-74
2022/02/02 10:04:05;;;;;;;8.20;3.90;;;;;;;3.03;83.02;98218.41;130791;1265;108941;-74
2022/02/02 10:07:31;;;;;;;12.60;6.40;;;;;;;3.02;83.45;98226.80;130609;1265;108440;-77
2022/02/02 10:10:54;;;;;;;16.60;7.50;;;;;;;3.05;83.25;98229.84;130868;1265;106800;-73
2022/02/02 10:14:15;;;;;;;11.50;6.00;;;;;;;3.02;82.90;98234.70;130563;1267;108963;-72
2022/02/02 10:17:29;;;;;;;11.70;5.70;;;;;;;3.01;83.28;98238.02;130467;1267;108490;-74
2022/02/02 10:20:36;;;;;;;16.40;7.20;;;;;;;3.00;83.22;98233.86;130484;1267;109077;-71
2022/02/02 10:23:42;;;;;;;8.60;4.80;;;;;;;2.99;82.18;98232.40;130543;1267;108712;-73
2022/02/02 10:26:49;;;;;;;13.80;7.20;;;;;;;2.95;82.36;98234.33;130486;1267;107000;-74
2022/02/02 10:30:04;;;;;;;11.10;5.70;;;;;;;2.95;82.03;98244.23;130566;1266;108974;-73
2022/02/02 10:33:13;;;;;;;7.50;4.80;;;;;;;2.93;81.92;98245.23;130553;1266;108712;-73
2022/02/02 10:36:20;;;;;;;11.00;7.00;;;;;;;2.92;81.95;98248.71;131140;1265;108217;-77
2022/02/02 10:39:44;;;;;;;6.20;4.30;;;;;;;2.91;81.45;98255.16;130579;1267;109135;-80
2022/02/02 10:42:50;;;;;;;8.40;4.90;;;;;;;2.85;81.39;98264.30;130862;1267;108722;-78
2022/02/02 10:45:55;;;;;;;5.80;3.60;;;;;;;2.80;81.07;98262.52;130514;1267;108668;-77
2022/02/02 10:49:13;;;;;;;4.00;3.30;;;;;;;2.75;80.57;98270.09;130517;1267;108946;-77
2022/02/02 10:52:35;;;;;;;8.40;4.30;;;;;;;2.70;80.49;98271.95;130686;1267;108591;-76
2022/02/02 10:55:58;;;;;;;6.00;4.30;;;;;;;2.63;80.93;98277.76;130484;1266;108772;-74
2022/02/02 10:59:18;;;;;;;6.90;4.30;;;;;;;2.64;81.35;98277.67;130574;1267;108015;-75
2022/02/02 11:09:18;;;;;;;8.00;5.20;;;;;;;2.67;81.01;98305.38;130742;1265;107421;-81
2022/02/02 11:12:32;;;;;;;10.30;6.00;;;;;;;2.80;80.86;98307.33;130836;1265;108862;-78
2022/02/02 11:15:46;;;;;;;16.30;8.60;;;;;;;2.86;80.97;98312.02;130628;1265;108515;-78
2022/02/02 11:18:53;;;;;;;16.00;8.00;;;;;;;2.95;81.43;98316.52;130397;1267;108219;-75
2022/02/02 11:22:30;;;;;;;13.30;6.30;;;;;;;2.91;81.93;98330.50;130582;1266;108856;-77
2022/02/02 11:25:54;;;;;;;6.80;4.90;;;;;;;2.75;82.95;98353.44;130491;1267;108697;-75
2022/02/02 11:29:00;;;;;;;6.20;4.30;;;;;;;2.60;83.70;98352.47;130438;1267;108807;-77
2022/02/02 11:32:08;;;;;;;13.00;6.70;;;;;;;2.54;83.90;98363.17;130533;1267;108739;-78
2022/02/02 11:35:37;;;;;;;12.70;5.90;;;;;;;2.53;84.54;98375.40;130539;1267;109050;-78
2022/02/02 11:38:44;;;;;;;7.10;4.40;;;;;;;2.48;84.37;98376.96;130486;1267;108767;-75
2022/02/02 11:41:58;;;;;;;24.80;12.40;;;;;;;2.49;84.87;98388.10;130443;1267;107585;-76
2022/02/02 11:45:15;;;;;;;13.30;7.20;;;;;;;2.47;84.82;98393.02;130552;1267;108714;-75
2022/02/02 11:48:55;;;;;;;6.70;4.40;;;;;;;2.49;84.70;98399.15;130531;1267;108852;-75
2022/02/02 11:52:03;;;;;;;6.60;4.70;;;;;;;2.55;84.46;98411.40;130563;1267;108749;-75
2022/02/02 11:55:53;;;;;;;8.30;4.80;;;;;;;2.55;84.31;98414.13;130568;1266;107802;-71
2022/02/02 11:59:19;;;;;;;8.00;5.00;;;;;;;2.54;84.44;98418.49;130544;1267;108785;-74
2022/02/02 12:06:11;;;;;;;9.80;5.80;;;;;;;2.60;84.24;98434.79;130803;1267;108964;-73
2022/02/02 12:09:26;;;;;;;8.50;5.60;;;;;;;2.59;84.31;98451.56;130518;1267;107679;-73
2022/02/02 12:47:09;;;;;;;14.70;7.90;;;;;;;2.25;85.24;98559.52;130488;1267;108737;-75
2022/02/02 12:54:20;;;;;;;10.30;6.20;;;;;;;2.28;85.21;98578.86;130638;1267;108760;-73
2022/02/02 12:57:31;;;;;;;10.70;6.60;;;;;;;2.28;85.33;98589.90;130705;1267;109018;-72
2022/02/02 13:00:41;;;;;;;12.30;7.50;;;;;;;2.31;85.36;98599.44;130512;1266;108980;-78
2022/02/02 13:03:47;;;;;;;12.50;7.80;;;;;;;2.37;85.24;98610.53;130454;1265;108891;-75
2022/02/02 13:06:53;;;;;;;9.60;6.40;;;;;;;2.37;84.92;98620.66;130585;1265;108626;-77
2022/02/02 13:10:01;;;;;;;27.80;17.60;;;;;;;2.37;85.05;98625.10;131159;1264;108721;-73
2022/02/02 13:13:10;;;;;;;13.10;8.70;;;;;;;2.36;85.16;98629.91;130791;1265;108073;-74
2022/02/02 13:16:25;;;;;;;19.70;13.30;;;;;;;2.36;84.86;98634.98;130426;1266;108853;-74
2022/02/02 13:19:34;;;;;;;24.50;15.20;;;;;;;2.36;85.00;98646.02;130535;1265;107650;-75
2022/02/02 13:22:46;;;;;;;23.20;15.10;;;;;;;2.34;84.95;98654.83;130666;1265;108725;-72
2022/02/02 13:26:01;;;;;;;12.40;7.30;;;;;;;2.33;85.14;98655.23;130568;1265;107877;-74
2022/02/02 13:29:12;;;;;;;16.30;11.00;;;;;;;2.35;85.26;98659.13;130645;1265;108998;-75
2022/02/02 13:32:26;;;;;;;15.50;9.90;;;;;;;2.35;85.13;98668.95;130752;1265;108620;-74
2022/02/02 13:35:38;;;;;;;11.50;7.80;;;;;;;2.32;85.27;98676.70;130512;1264;108618;-73
2022/02/02 13:39:14;;;;;;;18.20;10.10;;;;;;;2.29;85.43;98685.56;130520;1265;108566;-74
2022/02/02 13:49:35;;;;;;;54.20;23.10;;;;;;;2.37;85.23;98704.97;130229;1268;108794;-76
2022/02/02 13:52:52;;;;;;;39.00;19.60;;;;;;;2.47;85.02;98709.33;130551;1266;107532;-73
2022/02/02 13:56:13;;;;;;;119.30;43.20;;;;;;;2.47;84.86;98722.08;130934;1265;108676;-75
2022/02/02 14:06:18;;;;;;;65.80;32.40;;;;;;;2.63;84.06;98748.60;130429;1264;108796;-73
2022/02/02 14:09:33;;;;;;;51.70;27.30;;;;;;;2.63;84.02;98754.88;130449;1265;108808;-72
2022/02/02 14:32:58;;;;;;;19.80;11.90;;;;;;;2.30;84.94;98804.27;130448;1267;108758;-74
2022/02/02 14:36:06;;;;;;;18.70;11.80;;;;;;;2.29;85.06;98810.57;130486;1267;108647;-73
2022/02/02 14:39:17;;;;;;;13.40;9.00;;;;;;;2.25;85.31;98816.83;130604;1265;108677;-76
2022/02/02 14:42:27;;;;;;;11.30;7.70;;;;;;;2.22;85.31;98818.58;130743;1265;108612;-75
2022/02/02 14:45:34;;;;;;;16.30;10.10;;;;;;;2.20;85.29;98831.86;130325;1267;108463;-75
2022/02/02 14:48:46;;;;;;;19.30;11.80;;;;;;;2.18;85.42;98846.26;130356;1267;108730;-76
2022/02/02 14:52:01;;;;;;;35.20;19.70;;;;;;;2.18;85.62;98853.12;130302;1267;109759;-75
2022/02/02 15:09:29;;;;;;;43.90;24.10;;;;;;;2.08;86.00;98902.58;130584;1267;109068;-76
2022/02/02 15:27:14;;;;;;;17.70;10.60;;;;;;;1.92;86.29;98958.05;130565;1267;108975;-74
2022/02/02 15:30:10;;;;;;;19.60;12.00;;;;;;;1.94;86.14;98957.20;130378;1267;109043;-74
2022/02/02 15:33:17;;;;;;;29.70;15.30;;;;;;;1.97;86.03;98967.37;130346;1267;108834;-73
2022/02/02 15:39:54;;;;;;;29.70;16.50;;;;;;;1.89;86.00;98974.46;130233;1266;108856;-72
2022/02/02 15:43:11;;;;;;;29.90;15.40;;;;;;;1.86;86.21;98980.34;130701;1267;108871;-76
2022/02/02 15:57:25;;;;;;;23.00;13.40;;;;;;;1.70;86.32;99020.41;130580;1267;108831;-74
2022/02/02 16:03:38;;;;;;;20.20;11.90;;;;;;;1.71;86.61;99041.73;130553;1267;108520;-75
2022/02/02 16:06:44;;;;;;;20.90;10.80;;;;;;;1.70;86.58;99047.30;130594;1266;106666;-73
2022/02/02 16:09:52;;;;;;;21.90;11.10;;;;;;;1.68;86.80;99053.08;130480;1265;108679;-73
2022/02/02 16:12:58;;;;;;;36.70;15.30;;;;;;;1.68;86.66;99059.35;130620;1266;108781;-72
2022/02/02 16:16:13;;;;;;;28.80;13.30;;;;;;;1.72;86.28;99067.83;130418;1267;109190;-73
2022/02/02 16:19:23;;;;;;;47.50;18.80;;;;;;;1.71;86.19;99075.98;130690;1266;108902;-75
2022/02/02 16:33:07;;;;;;;14.60;9.50;;;;;;;1.68;85.88;99108.10;130241;1267;138357;-75
2022/02/02 16:36:17;;;;;;;17.70;9.50;;;;;;;1.66;85.83;99113.84;130282;1266;108909;-76
2022/02/02 16:39:23;;;;;;;42.10;18.30;;;;;;;1.64;85.76;99118.59;130626;1266;108916;-76
2022/02/02 16:46:07;;;;;;;44.60;19.50;;;;;;;1.71;85.72;99132.05;129979;1273;109705;-75
2022/02/02 16:49:12;;;;;;;15.70;8.90;;;;;;;1.76;85.30;99139.84;129867;1273;108690;-75
2022/02/02 16:52:22;;;;;;;26.80;14.70;;;;;;;1.76;85.18;99139.55;130388;1266;108996;-75
2022/02/02 16:55:36;;;;;;;17.30;10.00;;;;;;;1.75;85.05;99148.69;130603;1267;109334;-76
2022/02/02 17:32:34;;;;;;;15.40;8.30;;;;;;;1.36;84.27;99234.14;130543;1265;107895;-76
2022/02/02 17:36:02;;;;;;;16.50;9.30;;;;;;;1.36;84.17;99239.27;130705;1267;107592;-75
2022/02/02 17:39:11;;;;;;;23.90;13.10;;;;;;;1.35;84.23;99244.27;130722;1267;106598;-76
2022/02/02 17:45:48;;;;;;;21.80;12.00;;;;;;;1.43;84.19;99265.66;130527;1267;108715;-78
2022/02/02 18:13:11;;;;;;;19.40;10.20;;;;;;;1.36;82.95;99317.55;130683;1265;106684;-76
2022/02/02 18:19:50;;;;;;;30.50;13.40;;;;;;;1.36;82.67;99336.31;130695;1267;108659;-75
2022/02/02 18:23:03;;;;;;;39.20;16.80;;;;;;;1.36;82.80;99340.91;130568;1267;108929;-74
2022/02/02 18:26:16;;;;;;;34.50;16.20;;;;;;;1.33;82.91;99354.48;130450;1267;108526;-76
2022/02/02 18:29:26;;;;;;;;;;;;;;;1.26;82.84;99362.15;130472;1267;109042;-75
2022/02/02 18:32:43;;;;;;;23.00;11.10;;;;;;;1.20;82.93;99365.05;130490;1267;108801;-75
2022/02/02 18:35:56;;;;;;;30.10;14.40;;;;;;;1.18;83.20;99371.65;130619;1267;108732;-77
2022/02/02 18:49:38;;;;;;;20.40;9.60;;;;;;;1.16;82.45;99397.71;130225;1267;106872;-74
2022/02/02 18:56:25;;;;;;;20.00;10.10;;;;;;;1.12;81.60;99402.29;130470;1267;110165;-73
2022/02/02 18:59:52;;;;;;;23.40;11.60;;;;;;;1.08;81.35;99408.17;130569;1267;107559;-72
2022/02/02 19:03:26;;;;;;;24.50;12.30;;;;;;;1.00;81.57;99416.30;130747;1267;109669;-74
2022/02/02 19:06:52;;;;;;;18.50;9.10;;;;;;;0.95;81.40;99431.50;130537;1267;107602;-75
2022/02/02 19:37:24;;;;;;;20.10;10.00;;;;;;;0.84;82.14;99513.73;130346;1267;108749;-75
2022/02/02 19:40:36;;;;;;;13.90;8.00;;;;;;;0.81;82.08;99524.13;130463;1267;108703;-77
2022/02/02 20:01:41;;;;;;;19.00;10.30;;;;;;;0.82;81.22;99552.90;130318;1267;106745;-77
2022/02/02 20:04:34;;;;;;;24.00;11.20;;;;;;;0.80;81.17;99566.59;130390;1267;108717;-77
2022/02/02 20:08:02;;;;;;;54.20;19.80;;;;;;;0.80;81.31;99574.61;130380;1267;108937;-78
2022/02/02 20:11:15;;;;;;;48.90;20.10;;;;;;;0.79;81.25;99589.88;130349;1267;106822;-78
2022/02/02 20:14:21;;;;;;;65.00;23.70;;;;;;;0.71;81.04;99599.89;130490;1267;108615;-78
2022/02/02 20:17:27;;;;;;;71.70;24.50;;;;;;;0.65;81.43;99607.12;130384;1267;108900;-77
2022/02/02 20:20:37;;;;;;;42.60;19.40;;;;;;;0.65;81.93;99612.06;130403;1267;108892;-77
2022/02/02 20:23:45;;;;;;;29.70;13.00;;;;;;;0.68;82.02;99618.33;130458;1267;108806;-78
2022/02/02 20:26:50;;;;;;;27.40;12.70;;;;;;;0.66;82.16;99626.53;131118;1267;108950;-78
2022/02/02 20:29:56;;;;;;;45.90;16.60;;;;;;;0.60;82.08;99630.61;130673;1267;108859;-77
2022/02/02 20:33:02;;;;;;;31.40;13.50;;;;;;;0.57;82.21;99637.08;130687;1267;108747;-77
2022/02/02 20:36:09;;;;;;;34.30;13.70;;;;;;;0.57;82.17;99645.29;130756;1267;108626;-76
2022/02/02 20:39:33;;;;;;;30.20;12.40;;;;;;;0.57;82.22;99648.63;130753;1267;108711;-78
2022/02/02 20:42:46;;;;;;;23.20;10.50;;;;;;;0.57;82.05;99661.19;130586;1267;108632;-75
2022/02/02 20:46:12;;;;;;;;;;;;;;;0.56;81.97;99667.63;130618;1267;108950;-78
2022/02/02 21:06:41;;;;;;;20.70;9.50;;;;;;;0.38;80.81;99715.68;130081;1271;107844;-78
2022/02/02 21:10:02;;;;;;;18.40;8.90;;;;;;;0.38;80.38;99716.89;130437;1271;108843;-77
2022/02/02 21:16:37;;;;;;;18.00;8.50;;;;;;;0.37;80.25;99723.95;130589;1266;108787;-79
2022/02/02 21:19:50;;;;;;;13.50;7.50;;;;;;;0.36;80.37;99731.52;130575;1267;108767;-76
2022/02/02 21:23:02;;;;;;;11.10;6.20;;;;;;;0.39;79.90;99742.59;130502;1267;108672;-80
2022/02/02 21:26:18;;;;;;;21.70;9.80;;;;;;;0.46;80.26;99744.91;130746;1267;108710;-77
2022/02/02 21:29:25;;;;;;;18.80;8.20;;;;;;;0.52;79.25;99746.80;130517;1267;108679;-76
2022/02/02 21:32:30;;;;;;;17.00;8.30;;;;;;;0.52;79.65;99753.98;130585;1267;108521;-78
2022/02/02 21:35:36;;;;;;;21.10;9.40;;;;;;;0.54;79.85;99757.89;130545;1267;108976;-74
2022/02/02 21:38:54;;;;;;;22.40;9.70;;;;;;;0.54;79.61;99765.60;130582;1267;108155;-78
2022/02/02 21:41:59;;;;;;;17.10;8.70;;;;;;;0.53;79.44;99775.65;130475;1266;109057;-80
2022/02/02 21:45:06;;;;;;;13.80;7.40;;;;;;;0.52;79.50;99785.69;130748;1267;108782;-79
2022/02/02 21:48:11;;;;;;;13.90;6.60;;;;;;;0.55;79.60;99794.02;130613;1267;108642;-81
2022/02/02 21:51:25;;;;;;;15.20;7.00;;;;;;;0.62;79.62;99809.89;130774;1267;108516;-77
2022/02/02 21:54:31;;;;;;;15.00;7.40;;;;;;;0.65;79.13;99816.35;130511;1266;109720;-81
2022/02/02 21:57:37;;;;;;;14.80;7.10;;;;;;;0.64;79.05;99826.20;130773;1267;108831;-78
2022/02/02 22:00:43;;;;;;;16.90;8.20;;;;;;;0.62;79.36;99831.08;130451;1267;108728;-81
2022/02/02 22:03:49;;;;;;;26.60;11.00;;;;;;;0.60;79.60;99841.49;130491;1267;109850;-80
2022/02/02 22:06:54;;;;;;;29.00;12.40;;;;;;;0.55;79.53;99849.84;130551;1267;106807;-82
2022/02/02 22:10:04;;;;;;;23.80;10.50;;;;;;;0.50;79.66;99856.17;130526;1267;108656;-82
2022/02/02 22:13:10;;;;;;;21.30;9.40;;;;;;;0.47;79.85;99857.41;130557;1267;107600;-84
2022/02/02 22:16:19;;;;;;;22.70;9.90;;;;;;;0.46;79.84;99864.29;130525;1267;107780;-82
2022/02/02 22:19:25;;;;;;;20.60;8.70;;;;;;;0.44;79.75;99871.38;130634;1266;108897;-82
2022/02/02 22:22:30;;;;;;;22.50;9.00;;;;;;;0.44;80.19;99872.14;130566;1267;108794;-81
2022/02/02 22:25:36;;;;;;;20.30;8.30;;;;;;;0.45;80.15;99877.16;130555;1267;108268;-80
2022/02/02 22:28:41;;;;;;;15.60;7.40;;;;;;;0.42;79.96;99886.42;130386;1267;108764;-80